sensor_id;sensor_type;location;lat;lon;timestamp;pressure;altitude;pressure_sealevel;temperature;humidity
3206;BME280;1615;53.602;11.418;2024-03-25T00:01:29;99417.97;;;8.86;100.00
3206;BME280;1615;53.602;11.418;2024-03-25T00:03:55;99429.72;;;8.95;100.00
3206;BME280;1615;53.602;11.418;2024-03-25T00:06:20;99394.53;;;8.63;100.00
3206;BME280;1615;53.602;11.418;2024-03-25T00:08:45;99446.13;;;8.95;100.00
3206;BME280;1615;53.602;11.418;2024-03-25T00:11:11;99418.38;;;8.71;100.00
3206;BME280;1615;53.602;11.418;2024-03-25T00:13:36;99412.75;;;8.67;100.00
3206;BME280;1615;53.602;11.418;2024-03-25T00:16:02;99450.28;;;8.92;100.00
3206;BME280;1615;53.602;11.418;2024-03-25T00:18:27;99466.03;;;8.87;100.00
3206;BME280;1615;53.602;11.418;2024-03-25T00:20:52;99480.50;;;8.87;100.00
3206;BME280;1615;53.602;11.418;2024-03-25T00:23:18;99420.91;;;8.59;100.00
3206;BME280;1615;53.602;11.418;2024-03-25T00:25:43;99435.22;;;8.64;100.00
3206;BME280;1615;53.602;11.418;2024-03-25T00:28:09;99423.75;;;8.54;100.00
3206;BME280;1615;53.602;11.418;2024-03-25T00:30:34;99443.41;;;8.64;100.00
3206;BME280;1615;53.602;11.418;2024-03-25T00:32:59;99457.25;;;8.68;100.00
3206;BME280;1615;53.602;11.418;2024-03-25T00:35:25;99469.78;;;8.69;100.00
3206;BME280;1615;53.602;11.418;2024-03-25T00:37:50;99447.81;;;8.52;100.00
3206;BME280;1615;53.602;11.418;2024-03-25T00:40:15;99465.22;;;8.56;100.00
3206;BME280;1615;53.602;11.418;2024-03-25T00:42:41;99435.84;;;8.39;100.00
3206;BME280;1615;53.602;11.418;2024-03-25T00:45:06;99457.63;;;8.53;100.00
3206;BME280;1615;53.602;11.418;2024-03-25T00:47:32;99476.63;;;8.58;100.00
3206;BME280;1615;53.602;11.418;2024-03-25T00:49:58;99466.94;;;8.52;100.00
3206;BME280;1615;53.602;11.418;2024-03-25T00:52:23;99474.09;;;8.61;100.00
3206;BME280;1615;53.602;11.418;2024-03-25T00:54:48;99481.16;;;8.62;100.00
3206;BME280;1615;53.602;11.418;2024-03-25T00:57:13;99483.59;;;8.64;100.00
3206;BME280;1615;53.602;11.418;2024-03-25T00:59:39;99467.31;;;8.59;100.00
3206;BME280;1615;53.602;11.418;2024-03-25T01:02:04;99456.53;;;8.54;100.00
3206;BME280;1615;53.602;11.418;2024-03-25T01:04:30;99479.28;;;8.71;100.00
3206;BME280;1615;53.602;11.418;2024-03-25T01:06:55;99471.41;;;8.70;100.00
3206;BME280;1615;53.602;11.418;2024-03-25T01:09:20;99488.81;;;8.82;100.00
3206;BME280;1615;53.602;11.418;2024-03-25T01:11:47;99490.41;;;8.75;100.00
3206;BME280;1615;53.602;11.418;2024-03-25T01:14:12;99485.06;;;8.70;100.00
3206;BME280;1615;53.602;11.418;2024-03-25T01:16:37;99486.69;;;8.71;100.00
3206;BME280;1615;53.602;11.418;2024-03-25T01:19:03;99430.03;;;8.32;100.00
3206;BME280;1615;53.602;11.418;2024-03-25T01:21:28;99482.81;;;8.72;100.00
3206;BME280;1615;53.602;11.418;2024-03-25T01:23:55;99477.00;;;8.65;100.00
3206;BME280;1615;53.602;11.418;2024-03-25T01:26:20;99386.16;;;8.07;100.00
3206;BME280;1615;53.602;11.418;2024-03-25T01:28:45;99444.72;;;8.45;100.00
3206;BME280;1615;53.602;11.418;2024-03-25T01:31:11;99497.66;;;8.79;100.00
3206;BME280;1615;53.602;11.418;2024-03-25T01:33:36;99509.59;;;8.83;100.00
3206;BME280;1615;53.602;11.418;2024-03-25T01:36:02;99424.50;;;8.24;100.00
3206;BME280;1615;53.602;11.418;2024-03-25T01:38:27;99496.31;;;8.68;100.00
3206;BME280;1615;53.602;11.418;2024-03-25T01:40:53;99512.63;;;8.82;100.00
3206;BME280;1615;53.602;11.418;2024-03-25T01:43:18;99501.59;;;8.65;100.00
3206;BME280;1615;53.602;11.418;2024-03-25T01:45:44;99494.56;;;8.50;100.00
3206;BME280;1615;53.602;11.418;2024-03-25T01:48:09;99480.00;;;8.55;100.00
3206;BME280;1615;53.602;11.418;2024-03-25T01:50:37;99524.16;;;8.79;100.00
3206;BME280;1615;53.602;11.418;2024-03-25T01:53:04;99459.06;;;8.28;100.00
3206;BME280;1615;53.602;11.418;2024-03-25T01:55:30;99529.63;;;8.79;100.00
3206;BME280;1615;53.602;11.418;2024-03-25T01:57:57;99510.75;;;8.47;100.00
3206;BME280;1615;53.602;11.418;2024-03-25T02:00:24;99514.97;;;8.53;100.00
3206;BME280;1615;53.602;11.418;2024-03-25T02:02:51;99515.38;;;8.60;100.00
3206;BME280;1615;53.602;11.418;2024-03-25T02:05:17;99321.16;;;7.43;100.00
3206;BME280;1615;53.602;11.418;2024-03-25T02:07:46;99506.66;;;8.58;100.00
3206;BME280;1615;53.602;11.418;2024-03-25T02:10:12;99550.22;;;8.85;100.00
3206;BME280;1615;53.602;11.418;2024-03-25T02:12:44;99469.97;;;8.28;100.00
3206;BME280;1615;53.602;11.418;2024-03-25T02:15:10;99493.81;;;8.36;100.00
3206;BME280;1615;53.602;11.418;2024-03-25T02:17:36;99557.47;;;8.81;100.00
3206;BME280;1615;53.602;11.418;2024-03-25T02:20:03;99550.50;;;8.75;100.00
3206;BME280;1615;53.602;11.418;2024-03-25T02:22:30;99554.91;;;8.84;100.00
3206;BME280;1615;53.602;11.418;2024-03-25T02:24:57;99551.81;;;8.77;100.00
3206;BME280;1615;53.602;11.418;2024-03-25T02:27:24;99589.78;;;8.65;100.00
3206;BME280;1615;53.602;11.418;2024-03-25T02:29:50;99540.44;;;8.62;100.00
3206;BME280;1615;53.602;11.418;2024-03-25T02:32:15;99535.63;;;8.59;100.00
3206;BME280;1615;53.602;11.418;2024-03-25T02:34:45;99573.34;;;8.79;100.00
3206;BME280;1615;53.602;11.418;2024-03-25T02:37:11;99491.03;;;8.28;100.00
3206;BME280;1615;53.602;11.418;2024-03-25T02:39:37;99502.06;;;8.23;100.00
3206;BME280;1615;53.602;11.418;2024-03-25T02:42:03;99532.41;;;8.43;100.00
3206;BME280;1615;53.602;11.418;2024-03-25T02:44:30;99563.91;;;8.63;100.00
3206;BME280;1615;53.602;11.418;2024-03-25T02:46:56;99526.41;;;8.33;100.00
3206;BME280;1615;53.602;11.418;2024-03-25T02:49:21;99479.53;;;8.04;100.00
3206;BME280;1615;53.602;11.418;2024-03-25T02:51:47;99567.38;;;8.55;100.00
3206;BME280;1615;53.602;11.418;2024-03-25T02:54:12;99588.38;;;8.68;100.00
3206;BME280;1615;53.602;11.418;2024-03-25T02:56:37;99578.19;;;8.60;100.00
3206;BME280;1615;53.602;11.418;2024-03-25T02:59:02;99451.94;;;7.83;100.00
3206;BME280;1615;53.602;11.418;2024-03-25T03:01:28;99561.75;;;8.51;100.00
3206;BME280;1615;53.602;11.418;2024-03-25T03:03:53;99583.34;;;8.61;100.00
3206;BME280;1615;53.602;11.418;2024-03-25T03:06:18;99573.44;;;8.52;100.00
3206;BME280;1615;53.602;11.418;2024-03-25T03:08:44;99554.69;;;8.37;100.00
3206;BME280;1615;53.602;11.418;2024-03-25T03:11:09;99586.63;;;8.50;100.00
3206;BME280;1615;53.602;11.418;2024-03-25T03:13:35;99612.03;;;8.72;100.00
3206;BME280;1615;53.602;11.418;2024-03-25T03:16:00;99602.66;;;8.65;100.00
3206;BME280;1615;53.602;11.418;2024-03-25T03:18:25;99571.66;;;8.47;100.00
3206;BME280;1615;53.602;11.418;2024-03-25T03:20:51;99603.78;;;8.64;100.00
3206;BME280;1615;53.602;11.418;2024-03-25T03:23:16;99599.53;;;8.58;100.00
3206;BME280;1615;53.602;11.418;2024-03-25T03:25:42;99624.41;;;8.70;100.00
3206;BME280;1615;53.602;11.418;2024-03-25T03:28:08;99637.81;;;8.80;100.00
3206;BME280;1615;53.602;11.418;2024-03-25T03:30:33;99614.56;;;8.69;100.00
3206;BME280;1615;53.602;11.418;2024-03-25T03:32:58;99567.34;;;8.33;100.00
3206;BME280;1615;53.602;11.418;2024-03-25T03:35:24;99654.53;;;8.78;100.00
3206;BME280;1615;53.602;11.418;2024-03-25T03:37:49;99609.47;;;8.54;100.00
3206;BME280;1615;53.602;11.418;2024-03-25T03:40:14;99653.81;;;8.73;100.00
3206;BME280;1615;53.602;11.418;2024-03-25T03:42:39;99659.28;;;8.73;100.00
3206;BME280;1615;53.602;11.418;2024-03-25T03:45:06;99652.31;;;8.67;100.00
3206;BME280;1615;53.602;11.418;2024-03-25T03:47:31;99652.53;;;8.57;100.00
3206;BME280;1615;53.602;11.418;2024-03-25T03:49:57;99644.47;;;8.52;100.00
3206;BME280;1615;53.602;11.418;2024-03-25T03:52:22;99509.72;;;7.72;100.00
3206;BME280;1615;53.602;11.418;2024-03-25T03:54:48;99680.66;;;8.71;100.00
3206;BME280;1615;53.602;11.418;2024-03-25T03:57:13;99683.59;;;8.61;100.00
3206;BME280;1615;53.602;11.418;2024-03-25T03:59:38;99688.34;;;8.55;100.00
3206;BME280;1615;53.602;11.418;2024-03-25T04:02:04;99691.41;;;8.54;100.00
3206;BME280;1615;53.602;11.418;2024-03-25T04:04:29;99689.78;;;8.53;100.00
3206;BME280;1615;53.602;11.418;2024-03-25T04:06:54;99605.50;;;7.97;100.00
3206;BME280;1615;53.602;11.418;2024-03-25T04:09:20;99711.03;;;8.56;100.00
3206;BME280;1615;53.602;11.418;2024-03-25T04:11:45;99613.56;;;7.89;100.00
3206;BME280;1615;53.602;11.418;2024-03-25T04:14:11;99701.44;;;8.45;100.00
3206;BME280;1615;53.602;11.418;2024-03-25T04:16:36;99683.63;;;8.34;100.00
3206;BME280;1615;53.602;11.418;2024-03-25T04:19:01;99717.91;;;8.40;100.00
3206;BME280;1615;53.602;11.418;2024-03-25T04:21:27;99698.09;;;8.34;100.00
3206;BME280;1615;53.602;11.418;2024-03-25T04:23:52;99641.47;;;7.99;100.00
3206;BME280;1615;53.602;11.418;2024-03-25T04:26:17;99705.97;;;8.36;100.00
3206;BME280;1615;53.602;11.418;2024-03-25T04:28:43;99710.31;;;8.37;100.00
3206;BME280;1615;53.602;11.418;2024-03-25T04:31:08;99719.53;;;8.41;100.00
3206;BME280;1615;53.602;11.418;2024-03-25T04:33:34;99581.56;;;7.54;100.00
3206;BME280;1615;53.602;11.418;2024-03-25T04:36:00;99736.72;;;8.55;100.00
3206;BME280;1615;53.602;11.418;2024-03-25T04:38:25;99782.63;;;8.53;100.00
3206;BME280;1615;53.602;11.418;2024-03-25T04:40:50;99740.88;;;8.52;100.00
3206;BME280;1615;53.602;11.418;2024-03-25T04:43:16;99735.91;;;8.41;100.00
3206;BME280;1615;53.602;11.418;2024-03-25T04:45:42;99666.94;;;7.95;100.00
3206;BME280;1615;53.602;11.418;2024-03-25T04:48:07;99740.59;;;8.27;100.00
3206;BME280;1615;53.602;11.418;2024-03-25T04:50:35;99786.59;;;8.47;100.00
3206;BME280;1615;53.602;11.418;2024-03-25T04:53:01;99800.56;;;8.45;100.00
3206;BME280;1615;53.602;11.418;2024-03-25T04:55:26;99748.16;;;8.30;100.00
3206;BME280;1615;53.602;11.418;2024-03-25T04:57:52;99787.91;;;8.49;100.00
3206;BME280;1615;53.602;11.418;2024-03-25T05:00:18;99793.16;;;8.46;100.00
3206;BME280;1615;53.602;11.418;2024-03-25T05:02:43;99802.19;;;8.46;100.00
3206;BME280;1615;53.602;11.418;2024-03-25T05:05:08;99716.06;;;7.95;100.00
3206;BME280;1615;53.602;11.418;2024-03-25T05:07:35;99801.97;;;8.43;100.00
3206;BME280;1615;53.602;11.418;2024-03-25T05:10:00;99806.13;;;8.40;100.00
3206;BME280;1615;53.602;11.418;2024-03-25T05:12:26;99820.06;;;8.39;100.00
3206;BME280;1615;53.602;11.418;2024-03-25T05:14:58;99808.94;;;8.35;100.00
3206;BME280;1615;53.602;11.418;2024-03-25T05:17:24;99793.72;;;8.16;100.00
3206;BME280;1615;53.602;11.418;2024-03-25T05:19:49;99784.59;;;8.07;100.00
3206;BME280;1615;53.602;11.418;2024-03-25T05:22:16;99825.72;;;8.29;100.00
3206;BME280;1615;53.602;11.418;2024-03-25T05:24:41;99796.03;;;8.09;100.00
3206;BME280;1615;53.602;11.418;2024-03-25T05:27:06;99819.53;;;8.23;100.00
3206;BME280;1615;53.602;11.418;2024-03-25T05:29:31;99874.38;;;8.27;100.00
3206;BME280;1615;53.602;11.418;2024-03-25T05:31:59;99832.19;;;8.33;100.00
3206;BME280;1615;53.602;11.418;2024-03-25T05:34:25;99835.63;;;8.38;100.00
3206;BME280;1615;53.602;11.418;2024-03-25T05:36:50;99807.81;;;8.23;100.00
3206;BME280;1615;53.602;11.418;2024-03-25T05:39:15;99831.00;;;8.39;100.00
3206;BME280;1615;53.602;11.418;2024-03-25T05:41:41;99817.13;;;8.22;100.00
3206;BME280;1615;53.602;11.418;2024-03-25T05:44:06;99828.16;;;8.30;100.00
3206;BME280;1615;53.602;11.418;2024-03-25T05:46:31;99735.13;;;7.68;100.00
3206;BME280;1615;53.602;11.418;2024-03-25T05:48:57;99842.91;;;8.29;100.00
3206;BME280;1615;53.602;11.418;2024-03-25T05:51:22;99828.53;;;8.24;100.00
3206;BME280;1615;53.602;11.418;2024-03-25T05:53:47;99832.00;;;8.29;100.00
3206;BME280;1615;53.602;11.418;2024-03-25T05:56:12;99762.50;;;7.76;100.00
3206;BME280;1615;53.602;11.418;2024-03-25T05:58:38;99809.28;;;8.15;100.00
3206;BME280;1615;53.602;11.418;2024-03-25T06:01:03;99768.59;;;7.87;100.00
3206;BME280;1615;53.602;11.418;2024-03-25T06:03:29;99850.81;;;8.44;100.00
3206;BME280;1615;53.602;11.418;2024-03-25T06:05:55;99850.81;;;8.44;100.00
3206;BME280;1615;53.602;11.418;2024-03-25T06:08:20;99873.50;;;8.58;100.00
3206;BME280;1615;53.602;11.418;2024-03-25T06:10:50;99879.78;;;8.59;100.00
3206;BME280;1615;53.602;11.418;2024-03-25T06:13:15;99836.25;;;8.35;100.00
3206;BME280;1615;53.602;11.418;2024-03-25T06:15:40;99863.16;;;8.55;100.00
3206;BME280;1615;53.602;11.418;2024-03-25T06:18:05;99853.25;;;8.46;100.00
3206;BME280;1615;53.602;11.418;2024-03-25T06:20:31;99873.50;;;8.58;100.00
3206;BME280;1615;53.602;11.418;2024-03-25T06:22:56;99849.59;;;8.50;100.00
3206;BME280;1615;53.602;11.418;2024-03-25T06:25:22;99884.03;;;8.78;100.00
3206;BME280;1615;53.602;11.418;2024-03-25T06:27:47;99881.81;;;8.80;100.00
3206;BME280;1615;53.602;11.418;2024-03-25T06:30:12;99880.00;;;8.76;100.00
3206;BME280;1615;53.602;11.418;2024-03-25T06:32:56;99846.78;;;8.69;100.00
3206;BME280;1615;53.602;11.418;2024-03-25T06:35:44;99902.25;;;8.96;100.00
3206;BME280;1615;53.602;11.418;2024-03-25T06:38:10;99874.31;;;8.72;100.00
3206;BME280;1615;53.602;11.418;2024-03-25T06:40:35;99912.91;;;8.98;100.00
3206;BME280;1615;53.602;11.418;2024-03-25T06:43:01;99910.66;;;9.00;100.00
3206;BME280;1615;53.602;11.418;2024-03-25T06:45:26;99927.06;;;9.00;100.00
3206;BME280;1615;53.602;11.418;2024-03-25T06:47:51;99845.13;;;8.41;100.00
3206;BME280;1615;53.602;11.418;2024-03-25T06:50:17;99930.81;;;8.90;100.00
3206;BME280;1615;53.602;11.418;2024-03-25T06:52:42;99870.47;;;8.60;100.00
3206;BME280;1615;53.602;11.418;2024-03-25T06:55:08;99915.81;;;8.88;100.00
3206;BME280;1615;53.602;11.418;2024-03-25T06:57:33;99858.41;;;8.47;100.00
3206;BME280;1615;53.602;11.418;2024-03-25T06:59:59;99934.03;;;9.06;100.00
3206;BME280;1615;53.602;11.418;2024-03-25T07:02:24;99884.94;;;8.74;100.00
3206;BME280;1615;53.602;11.418;2024-03-25T07:04:49;99941.66;;;9.09;100.00
3206;BME280;1615;53.602;11.418;2024-03-25T07:07:15;99940.72;;;9.27;100.00
3206;BME280;1615;53.602;11.418;2024-03-25T07:09:40;99922.50;;;9.09;100.00
3206;BME280;1615;53.602;11.418;2024-03-25T07:12:06;99949.44;;;9.29;100.00
3206;BME280;1615;53.602;11.418;2024-03-25T07:14:32;99850.44;;;8.78;100.00
3206;BME280;1615;53.602;11.418;2024-03-25T07:16:57;100034.16;;;9.47;100.00
3206;BME280;1615;53.602;11.418;2024-03-25T07:19:22;99705.47;;;8.07;100.00
3206;BME280;1615;53.602;11.418;2024-03-25T07:21:48;99948.19;;;9.62;100.00
3206;BME280;1615;53.602;11.418;2024-03-25T07:24:13;99934.25;;;9.50;100.00
3206;BME280;1615;53.602;11.418;2024-03-25T07:26:39;99952.44;;;9.68;100.00
3206;BME280;1615;53.602;11.418;2024-03-25T07:29:04;99945.75;;;9.60;100.00
3206;BME280;1615;53.602;11.418;2024-03-25T07:31:29;99965.63;;;9.66;100.00
3206;BME280;1615;53.602;11.418;2024-03-25T07:33:54;99953.66;;;9.62;100.00
3206;BME280;1615;53.602;11.418;2024-03-25T07:36:20;99882.72;;;9.16;100.00
3206;BME280;1615;53.602;11.418;2024-03-25T07:38:45;99967.84;;;9.64;100.00
3206;BME280;1615;53.602;11.418;2024-03-25T07:41:10;99985.88;;;9.65;100.00
3206;BME280;1615;53.602;11.418;2024-03-25T07:43:36;99956.94;;;9.37;100.00
3206;BME280;1615;53.602;11.418;2024-03-25T07:46:01;99972.53;;;9.50;100.00
3206;BME280;1615;53.602;11.418;2024-03-25T07:48:27;99916.75;;;9.10;100.00
3206;BME280;1615;53.602;11.418;2024-03-25T07:50:52;99988.31;;;9.66;100.00
3206;BME280;1615;53.602;11.418;2024-03-25T07:53:17;99892.53;;;9.04;100.00
3206;BME280;1615;53.602;11.418;2024-03-25T07:55:43;99957.94;;;9.41;100.00
3206;BME280;1615;53.602;11.418;2024-03-25T07:58:08;100009.78;;;9.73;100.00
3206;BME280;1615;53.602;11.418;2024-03-25T08:00:34;99994.91;;;9.52;100.00
3206;BME280;1615;53.602;11.418;2024-03-25T08:02:59;100003.13;;;9.65;100.00
3206;BME280;1615;53.602;11.418;2024-03-25T08:05:25;99988.31;;;9.66;100.00
3206;BME280;1615;53.602;11.418;2024-03-25T08:07:50;99998.66;;;9.56;100.00
3206;BME280;1615;53.602;11.418;2024-03-25T08:10:15;100009.41;;;9.66;100.00
3206;BME280;1615;53.602;11.418;2024-03-25T08:12:41;100003.72;;;9.62;100.00
3206;BME280;1615;53.602;11.418;2024-03-25T08:15:06;99993.38;;;9.73;100.00
3206;BME280;1615;53.602;11.418;2024-03-25T08:17:33;100032.41;;;9.92;100.00
3206;BME280;1615;53.602;11.418;2024-03-25T08:19:58;100002.72;;;9.72;100.00
3206;BME280;1615;53.602;11.418;2024-03-25T08:22:23;100028.22;;;9.81;100.00
3206;BME280;1615;53.602;11.418;2024-03-25T08:24:49;100006.66;;;9.79;99.65
3206;BME280;1615;53.602;11.418;2024-03-25T08:27:14;100016.56;;;9.89;98.79
3206;BME280;1615;53.602;11.418;2024-03-25T08:29:40;100026.19;;;10.00;97.68
3206;BME280;1615;53.602;11.418;2024-03-25T08:32:06;100064.22;;;10.15;96.76
3206;BME280;1615;53.602;11.418;2024-03-25T08:34:31;99995.97;;;10.05;96.53
3206;BME280;1615;53.602;11.418;2024-03-25T08:36:56;100016.78;;;10.28;96.81
3206;BME280;1615;53.602;11.418;2024-03-25T08:39:21;99784.44;;;8.98;96.33
3206;BME280;1615;53.602;11.418;2024-03-25T08:41:47;100001.13;;;10.42;90.87
3206;BME280;1615;53.602;11.418;2024-03-25T08:44:12;99913.25;;;9.81;90.63
3206;BME280;1615;53.602;11.418;2024-03-25T08:46:39;100015.06;;;10.54;90.09
3206;BME280;1615;53.602;11.418;2024-03-25T08:49:04;99989.75;;;10.48;88.11
3206;BME280;1615;53.602;11.418;2024-03-25T08:51:29;100030.72;;;10.53;88.29
3206;BME280;1615;53.602;11.418;2024-03-25T08:53:55;100024.53;;;10.48;85.46
3206;BME280;1615;53.602;11.418;2024-03-25T08:56:20;100035.75;;;10.60;87.63
3206;BME280;1615;53.602;11.418;2024-03-25T08:58:45;99826.88;;;9.31;90.10
3206;BME280;1615;53.602;11.418;2024-03-25T09:01:11;99970.88;;;10.47;90.25
3206;BME280;1615;53.602;11.418;2024-03-25T09:03:39;100052.19;;;11.04;89.15
3206;BME280;1615;53.602;11.418;2024-03-25T09:06:05;100031.97;;;11.22;86.79
3206;BME280;1615;53.602;11.418;2024-03-25T09:08:36;100024.47;;;11.14;82.74
3206;BME280;1615;53.602;11.418;2024-03-25T09:11:22;100011.63;;;11.23;80.36
3206;BME280;1615;53.602;11.418;2024-03-25T09:13:50;99993.06;;;11.20;82.46
3206;BME280;1615;53.602;11.418;2024-03-25T09:16:15;99974.53;;;10.95;79.12
3206;BME280;1615;53.602;11.418;2024-03-25T09:18:40;100052.84;;;11.40;79.76
3206;BME280;1615;53.602;11.418;2024-03-25T09:21:06;100021.53;;;11.02;79.00
3206;BME280;1615;53.602;11.418;2024-03-25T09:23:31;100024.00;;;11.12;79.20
3206;BME280;1615;53.602;11.418;2024-03-25T09:25:57;100043.16;;;11.34;78.83
3206;BME280;1615;53.602;11.418;2024-03-25T09:28:22;100051.38;;;11.34;75.05
3206;BME280;1615;53.602;11.418;2024-03-25T09:30:48;100070.81;;;11.46;77.12
3206;BME280;1615;53.602;11.418;2024-03-25T09:33:14;100074.50;;;11.41;77.48
3206;BME280;1615;53.602;11.418;2024-03-25T09:35:39;99879.47;;;10.21;78.04
3206;BME280;1615;53.602;11.418;2024-03-25T09:38:05;100075.31;;;11.42;78.94
3206;BME280;1615;53.602;11.418;2024-03-25T09:40:31;100048.38;;;11.44;76.61
3206;BME280;1615;53.602;11.418;2024-03-25T09:42:57;99926.59;;;10.84;76.45
3206;BME280;1615;53.602;11.418;2024-03-25T09:45:25;100073.44;;;11.90;75.29
3206;BME280;1615;53.602;11.418;2024-03-25T09:47:51;100069.41;;;11.96;73.31
3206;BME280;1615;53.602;11.418;2024-03-25T09:50:17;100049.13;;;11.66;72.13
3206;BME280;1615;53.602;11.418;2024-03-25T09:52:51;100090.69;;;11.82;70.50
3206;BME280;1615;53.602;11.418;2024-03-25T09:55:17;100090.25;;;11.88;70.79
3206;BME280;1615;53.602;11.418;2024-03-25T09:57:42;100058.03;;;11.72;70.66
3206;BME280;1615;53.602;11.418;2024-03-25T10:00:09;100087.66;;;11.92;72.79
3206;BME280;1615;53.602;11.418;2024-03-25T10:02:37;100049.25;;;12.09;72.19
3206;BME280;1615;53.602;11.418;2024-03-25T10:05:04;100060.75;;;12.11;67.90
3206;BME280;1615;53.602;11.418;2024-03-25T10:07:30;100085.50;;;12.28;68.83
3206;BME280;1615;53.602;11.418;2024-03-25T10:09:55;100057.00;;;12.07;67.19
3206;BME280;1615;53.602;11.418;2024-03-25T10:12:21;99955.84;;;11.36;69.32
3206;BME280;1615;53.602;11.418;2024-03-25T10:14:46;100057.13;;;11.85;70.49
3206;BME280;1615;53.602;11.418;2024-03-25T10:17:12;100045.63;;;11.44;71.32
3206;BME280;1615;53.602;11.418;2024-03-25T10:19:38;100111.00;;;11.42;75.87
3206;BME280;1615;53.602;11.418;2024-03-25T10:22:08;100096.09;;;11.04;81.13
3206;BME280;1615;53.602;11.418;2024-03-25T10:24:40;100109.28;;;11.02;84.21
3206;BME280;1615;53.602;11.418;2024-03-25T10:27:10;100089.31;;;10.66;85.34
3206;BME280;1615;53.602;11.418;2024-03-25T10:29:36;100106.41;;;10.63;89.42
3206;BME280;1615;53.602;11.418;2024-03-25T10:32:02;100049.84;;;10.31;92.13
3206;BME280;1615;53.602;11.418;2024-03-25T10:34:30;100118.13;;;10.77;94.01
3206;BME280;1615;53.602;11.418;2024-03-25T10:36:57;100081.06;;;10.44;93.27
3206;BME280;1615;53.602;11.418;2024-03-25T10:39:26;100108.63;;;10.61;91.99
3206;BME280;1615;53.602;11.418;2024-03-25T10:41:56;100089.06;;;10.54;90.15
3206;BME280;1615;53.602;11.418;2024-03-25T10:44:23;100075.28;;;10.45;89.35
3206;BME280;1615;53.602;11.418;2024-03-25T10:46:53;100092.41;;;10.64;91.29
3206;BME280;1615;53.602;11.418;2024-03-25T10:52:08;99950.56;;;10.04;91.22
3206;BME280;1615;53.602;11.418;2024-03-25T10:54:34;100138.97;;;11.00;87.86
3206;BME280;1615;53.602;11.418;2024-03-25T10:57:00;100099.44;;;11.01;86.70
3206;BME280;1615;53.602;11.418;2024-03-25T10:59:29;100091.44;;;11.13;87.23
3206;BME280;1615;53.602;11.418;2024-03-25T11:01:55;100080.09;;;11.28;86.50
3206;BME280;1615;53.602;11.418;2024-03-25T11:04:22;100066.31;;;11.50;86.78
3206;BME280;1615;53.602;11.418;2024-03-25T11:06:48;100061.91;;;11.71;82.40
3206;BME280;1615;53.602;11.418;2024-03-25T11:09:23;100071.50;;;11.99;81.38
3206;BME280;1615;53.602;11.418;2024-03-25T11:11:53;100077.09;;;12.33;81.87
3206;BME280;1615;53.602;11.418;2024-03-25T11:14:18;100080.16;;;12.48;78.21
3206;BME280;1615;53.602;11.418;2024-03-25T11:16:51;99994.44;;;12.04;75.53
3206;BME280;1615;53.602;11.418;2024-03-25T11:19:17;100066.25;;;12.28;75.38
3206;BME280;1615;53.602;11.418;2024-03-25T11:21:43;99959.88;;;11.38;73.50
3206;BME280;1615;53.602;11.418;2024-03-25T11:24:08;100089.47;;;12.05;74.08
3206;BME280;1615;53.602;11.418;2024-03-25T11:26:34;100063.94;;;11.96;73.62
3206;BME280;1615;53.602;11.418;2024-03-25T11:29:01;100003.34;;;11.53;74.86
3206;BME280;1615;53.602;11.418;2024-03-25T11:31:26;100054.38;;;11.85;77.24
3206;BME280;1615;53.602;11.418;2024-03-25T11:33:55;100072.97;;;12.05;76.87
3206;BME280;1615;53.602;11.418;2024-03-25T11:36:22;100052.78;;;12.01;76.54
3206;BME280;1615;53.602;11.418;2024-03-25T11:39:01;100102.94;;;12.23;76.60
3206;BME280;1615;53.602;11.418;2024-03-25T11:41:31;100107.94;;;12.21;75.32
3206;BME280;1615;53.602;11.418;2024-03-25T11:43:57;100096.59;;;12.06;74.21
3206;BME280;1615;53.602;11.418;2024-03-25T11:46:25;100066.28;;;11.80;72.36
3206;BME280;1615;53.602;11.418;2024-03-25T11:48:50;99985.97;;;11.27;72.72
3206;BME280;1615;53.602;11.418;2024-03-25T11:51:22;100082.75;;;11.80;73.26
3206;BME280;1615;53.602;11.418;2024-03-25T11:53:47;100066.41;;;11.67;71.02
3206;BME280;1615;53.602;11.418;2024-03-25T11:56:13;100073.88;;;11.75;70.71
3206;BME280;1615;53.602;11.418;2024-03-25T11:58:39;100100.78;;;12.03;70.31
3206;BME280;1615;53.602;11.418;2024-03-25T12:01:05;100021.84;;;11.70;67.95
3206;BME280;1615;53.602;11.418;2024-03-25T12:03:30;99974.59;;;11.51;65.49
3206;BME280;1615;53.602;11.418;2024-03-25T12:05:56;100090.03;;;12.41;65.09
3206;BME280;1615;53.602;11.418;2024-03-25T12:08:23;100092.63;;;12.46;65.02
3206;BME280;1615;53.602;11.418;2024-03-25T12:10:51;100086.19;;;12.67;63.64
3206;BME280;1615;53.602;11.418;2024-03-25T12:13:35;100066.41;;;12.74;64.03
3206;BME280;1615;53.602;11.418;2024-03-25T12:16:06;100097.31;;;12.88;65.18
3206;BME280;1615;53.602;11.418;2024-03-25T12:18:33;100033.44;;;12.31;64.94
3206;BME280;1615;53.602;11.418;2024-03-25T12:20:58;100081.00;;;12.57;65.91
3206;BME280;1615;53.602;11.418;2024-03-25T12:23:29;99905.81;;;11.39;69.60
3206;BME280;1615;53.602;11.418;2024-03-25T12:25:54;100081.78;;;12.58;72.12
3206;BME280;1615;53.602;11.418;2024-03-25T12:28:19;100087.44;;;12.36;70.04
3206;BME280;1615;53.602;11.418;2024-03-25T12:30:55;100073.66;;;12.19;72.02
3206;BME280;1615;53.602;11.418;2024-03-25T12:33:23;100094.22;;;12.30;70.23
3206;BME280;1615;53.602;11.418;2024-03-25T12:35:50;100097.28;;;12.37;70.54
3206;BME280;1615;53.602;11.418;2024-03-25T12:38:23;100102.16;;;12.40;71.49
3206;BME280;1615;53.602;11.418;2024-03-25T12:40:48;100094.59;;;12.54;71.10
3206;BME280;1615;53.602;11.418;2024-03-25T12:43:15;100076.63;;;12.48;69.24
3206;BME280;1615;53.602;11.418;2024-03-25T12:45:41;100075.66;;;12.52;69.73
3206;BME280;1615;53.602;11.418;2024-03-25T12:48:07;99970.19;;;11.89;69.02
3206;BME280;1615;53.602;11.418;2024-03-25T12:50:32;100082.75;;;12.36;67.36
3206;BME280;1615;53.602;11.418;2024-03-25T12:52:57;100072.91;;;12.44;65.84
3206;BME280;1615;53.602;11.418;2024-03-25T12:55:23;100087.78;;;12.60;66.31
3206;BME280;1615;53.602;11.418;2024-03-25T12:57:48;100102.00;;;12.79;65.24
3206;BME280;1615;53.602;11.418;2024-03-25T13:00:14;100092.13;;;12.95;66.31
3206;BME280;1615;53.602;11.418;2024-03-25T13:02:39;100068.69;;;12.89;66.06
3206;BME280;1615;53.602;11.418;2024-03-25T13:05:05;100090.53;;;13.11;66.33